This is the latest recevied weather packets stored in our database for station/object N5ATR. If no packets are shown the sender has not sent any weather packets the latest 10 day(s).
| Time | Temp. | Humidity | Pressure | Rain* | Wind** | Luminosity | Snow |
|---|---|---|---|---|---|---|---|
| 1777567048 | 11.67° C | 55% | 1015.4 hPa | 0 mm | - | 700 W/m² | - |
| 1777566746 | 11.11° C | 57% | 1015.5 hPa | 0 mm | - | 788 W/m² | - |
| 1777566444 | 12.22° C | 56% | 1015.3 hPa | 0 mm | - | 562 W/m² | - |
| 1777566141 | 11.11° C | 57% | 1015.5 hPa | 0 mm | - | 683 W/m² | - |
| 1777565841 | 11.11° C | 58% | 1015.7 hPa | 0 mm | - | 629 W/m² | - |
| 1777565538 | 11.11° C | 60% | 1015.1 hPa | 0 mm | - | 654 W/m² | - |
| 1777565235 | 10.56° C | 59% | 1015.4 hPa | 0 mm | - | 664 W/m² | - |
| 1777564931 | 10° C | 61% | 1015.5 hPa | 0 mm | - | 488 W/m² | - |
| 1777564626 | 10° C | 61% | 1015.4 hPa | 0 mm | - | 551 W/m² | - |
| 1777564322 | 9.44° C | 64% | 1015.3 hPa | 0 mm | - | 450 W/m² | - |
| 1777564018 | 9.44° C | 62% | 1015.5 hPa | 0 mm | - | 399 W/m² | - |
| 1777563714 | 9.44° C | 64% | 1015.5 hPa | 0 mm | - | 445 W/m² | - |
| 1777563410 | 10° C | 63% | 1015.1 hPa | 0 mm | - | 373 W/m² | - |
| 1777563105 | 8.89° C | 65% | 1015.3 hPa | 0 mm | - | 237 W/m² | - |
| 1777562801 | 8.89° C | 65% | 1015.1 hPa | 0 mm | - | 252 W/m² | - |
| 1777562499 | 8.89° C | 66% | 1015.1 hPa | 0 mm | - | 220 W/m² | - |
| 1777562196 | 8.89° C | 67% | 1015.1 hPa | 0 mm | - | 310 W/m² | - |
| 1777561894 | 8.33° C | 67% | 1015.4 hPa | 0 mm | - | 204 W/m² | - |
| 1777561591 | 8.89° C | 67% | 1015.3 hPa | 0 mm | - | 222 W/m² | - |
| 1777561287 | 8.89° C | 66% | 1015.3 hPa | 0 mm | - | 491 W/m² | - |
| 1777560986 | 8.33° C | 68% | 1015.3 hPa | 0 mm | - | 192 W/m² | - |
| 1777560682 | 8.33° C | 67% | 1015.4 hPa | 0 mm | - | 198 W/m² | - |
| 1777560380 | 8.33° C | 68% | 1015.6 hPa | 0 mm | - | 405 W/m² | - |
| 1777560078 | 7.78° C | 70% | 1015.7 hPa | 0 mm | - | 292 W/m² | - |
| 1777559773 | 7.22° C | 72% | 1015.4 hPa | 0 mm | - | 175 W/m² | - |
* Rain latest hour (hover to see other rain measurements)
** Current wind speed in m/s (hover to see current wind gust speed)